Weldon, California
Current Conditions -  °F | °C
As of 6:56 PM on Wednesday 22 Oct 2014 (Local Time) from KNID Reporting Station
Broken Clouds Broken Clouds  
Wind Chill: 74°   Ceiling: 27000
Heat Index: 74°   Visibility: 10mi
Dew Point: 25°   Wind: 0mph
Humidity: 16%   Direction: NA
Pressure: 29.99"   Gusts: NA
Location:  35.67°N, 118.29°W
Report Text: KNID 230156Z 00000KT 10SM BKN270 23/M04 A2999 RMK AO2 SLP149 T02331039 $
Loading
Personal Weather Stations






























Interactive Weather Map
Tropical Storm Tracking
New forecast layout! Learn more

10-Day Weather Forecast

Advertisements
Track Severe Weather on mobile